Flight Track Log - Related Links

Times and Time Zones

All times are in EDT time to prevent confusion due to time zone crossing. See the N1377S flight status page for this flight to view local times or setup timezone preferences in your user account.

Time Position Orientation Groundspeed Altitude Reporting Facility
EDT Latitude Longitude Course Direction KTS MPH feet Rate Location/Type
Sun 12:35:33 PM 42.2272 -83.7350 64° Northeast 71 82 1,300  Level Cleveland Center
Sun 12:36:22 PM 42.2342 -83.7158 64° Northeast 75 86 2,000 764 Climbing Cleveland Center
Sun 12:37:23 PM 42.2472 -83.6939 51° Northeast 73 84 2,700 738 Climbing Cleveland Center
Sun 12:38:24 PM 42.2581 -83.6722 56° Northeast 70 81 3,500 738 Climbing Cleveland Center
Sun 12:39:25 PM 42.2547 -83.6467 100° East 76 87 4,200 609 Climbing Cleveland Center
Sun 12:40:32 PM 42.2428 -83.6208 122° Southeast 70 81 4,800 439 Climbing Cleveland Center
Sun 12:41:28 PM 42.2331 -83.5981 120° Southeast 78 90 5,100 146 Climbing Cleveland Center
Sun 12:42:35 PM 42.2278 -83.5583 100° East 93 107 5,100  Level Cleveland Center
Sun 12:43:36 PM 42.2183 -83.5272 112° Southeast 93 107 5,100 -49 Level Cleveland Center
Sun 12:44:38 PM 42.2108 -83.4931 106° East 94 108 5,000 -49 Descending Cleveland Center
Sun 12:45:39 PM 42.2033 -83.4592 107° East 90 104 5,000  Level Cleveland Center
Sun 12:46:46 PM 42.1939 -83.4194 108° East 91 105 5,000  Level Cleveland Center
Sun 12:47:47 PM 42.1861 -83.3911 110° East 87 100 5,000 49 Level Cleveland Center
Sun 12:48:48 PM 42.1764 -83.3600 113° Southeast 89 102 5,100  Climbing Cleveland Center
Sun 12:49:50 PM 42.1711 -83.3233 101° East 89 102 5,000 -49 Descending Cleveland Center
Sun 12:50:51 PM 42.1614 -83.2919 113° Southeast 91 105 5,000  Level Cleveland Center
Sun 12:51:52 PM 42.1539 -83.2608 108° East 91 105 5,000  Level Cleveland Center
Sun 12:52:54 PM 42.1461 -83.2297 109° East 88 101 5,000  Level Cleveland Center
Sun 12:53:55 PM 42.1303 -83.2011 127° Southeast 112 129 5,000  Level Cleveland Center
Sun 12:54:56 PM 42.1036 -83.1775 147° Southeast 109 125 5,000 49 Level Cleveland Center
Sun 12:55:57 PM 42.0792 -83.1569 148° Southeast 109 125 5,100 49 Climbing Cleveland Center
Sun 12:56:58 PM 42.0503 -83.1361 152° Southeast 112 129 5,100 -47 Level Cleveland Center
Sun 12:58:06 PM 42.0197 -83.1128 150° Southeast 110 127 5,000 -49 Descending Cleveland Center
Sun 12:59:01 PM 41.9972 -83.0922 146° Southeast 109 125 5,000  Level Cleveland Center
Sun 01:00:02 PM 41.9706 -83.0717 150° Southeast 106 122 5,000 49 Level Cleveland Center
Sun 01:01:03 PM 41.9458 -83.0511 148° Southeast 109 125 5,100 49 Climbing Cleveland Center
Sun 01:02:04 PM 41.9172 -83.0306 152° Southeast 112 129 5,100 -44 Level Cleveland Center
Sun 01:03:18 PM 41.8844 -83.0042 149° Southeast 111 128 5,000 -47 Descending Cleveland Center
Sun 01:04:13 PM 41.8639 -82.9867 148° Southeast 111 128 5,000  Level Cleveland Center
Sun 01:05:14 PM 41.8331 -82.9631 150° Southeast 111 128 5,000  Level Cleveland Center
Sun 01:06:08 PM 41.8064 -82.9456 154° Southeast 111 128 5,000  Level Cleveland Center
Sun 01:07:15 PM 41.7797 -82.9250 150° Southeast 111 128 5,000  Level Cleveland Center
Sun 01:08:22 PM 41.7489 -82.8989 148° Southeast 113 130 5,000  Level Cleveland Center
Sun 01:09:28 PM 41.7203 -82.8783 152° Southeast 110 127 5,000  Level Cleveland Center
Sun 01:10:23 PM 41.6975 -82.8581 146° Southeast 110 127 5,000 -99 Level Cleveland Center
Sun 01:12:00 PM 41.6618 -82.8190 153° Southeast  Level FlightAware Approximate
Sun 01:12:30 PM 41.6403 -82.8114 153° Southeast 116 133 4,700  Level Cleveland Center
Sun 01:13:37 PM 41.6011 -82.7853 154° Southeast 131 151 4,000 -639 Descending Cleveland Center
Sun 01:14:32 PM 41.5722 -82.7619 149° Southeast 129 148 3,400 -626 Descending Cleveland Center
Sun 01:15:32 PM 41.5436 -82.7361 146° Southeast 123 142 2,800 -600 Descending Cleveland Center

Login

Don't have an account? Register now (free) for customized features, flight alerts, and more!